Time;durP1;ratioP1;P1;durP2;ratioP2;P2;SDS_P1;SDS_P2;PMS_P1;PMS_P2;Temp;Humidity;BMP_temperature;BMP_pressure;BME280_temperature;BME280_humidity;BME280_pressure;Samples;Min_cycle;Max_cycle;Signal;HPM_P1;HPM_P2
2024/01/07 00:01:48;;;;;;;9.63;3.53;;;;;;;0.05;100.00;102614.25;5096954;28;20186;-73
2024/01/07 00:04:15;;;;;;;7.30;3.60;;;;;;;0.74;100.00;102708.81;5095291;28;20501;-73
2024/01/07 00:06:44;;;;;;;5.60;2.93;;;;;;;0.43;100.00;102700.03;5095737;28;20444;-73
2024/01/07 00:09:11;;;;;;;6.33;3.70;;;;;;;0.53;100.00;102683.66;5095233;27;20455;-73
2024/01/07 00:11:37;;;;;;;5.67;3.03;;;;;;;0.30;100.00;102642.75;5096784;28;20442;-73
2024/01/07 00:14:02;;;;;;;6.90;3.20;;;;;;;0.00;100.00;102617.16;5100126;28;20460;-74
2024/01/07 00:16:27;;;;;;;6.83;3.43;;;;;;;0.43;100.00;102696.53;5101768;28;20186;-73
2024/01/07 00:18:53;;;;;;;6.90;3.50;;;;;;;0.01;100.00;102639.09;5089775;28;20206;-73
2024/01/07 00:21:18;;;;;;;6.57;2.87;;;;;;;0.67;100.00;102747.09;5102691;28;20186;-73
2024/01/07 00:23:44;;;;;;;8.13;3.43;;;;;;;0.25;100.00;102708.13;5096875;28;20612;-73
2024/01/07 00:26:09;;;;;;;6.30;3.07;;;;;;;-0.15;100.00;102673.38;5095656;28;20204;-73
2024/01/07 00:28:35;;;;;;;6.27;3.13;;;;;;;0.58;100.00;102734.41;5097748;28;20193;-73
2024/01/07 00:31:00;;;;;;;4.80;2.80;;;;;;;0.38;100.00;102746.97;5095788;27;20443;-73
2024/01/07 00:33:26;;;;;;;6.37;3.17;;;;;;;0.04;100.00;102726.00;5096907;28;20178;-73
2024/01/07 00:35:51;;;;;;;5.90;3.20;;;;;;;0.35;100.00;102777.97;5101514;28;20227;-73
2024/01/07 00:38:16;;;;;;;6.50;3.10;;;;;;;-0.38;100.00;102611.34;5093315;28;20213;-73
2024/01/07 00:40:43;;;;;;;6.70;3.40;;;;;;;0.63;100.00;102732.34;5099949;28;20189;-73
2024/01/07 00:43:08;;;;;;;7.83;3.23;;;;;;;0.44;100.00;102753.69;5095163;28;20198;-73
2024/01/07 00:45:34;;;;;;;6.40;3.00;;;;;;;-0.37;100.00;102616.56;5099821;28;20467;-73
2024/01/07 00:47:59;;;;;;;5.40;3.07;;;;;;;-0.08;100.00;102658.94;5094200;28;20190;-73
2024/01/07 00:50:24;;;;;;;5.80;3.00;;;;;;;0.06;100.00;102692.44;5095873;28;20194;-73
2024/01/07 00:52:51;;;;;;;5.93;2.67;;;;;;;-0.23;100.00;102602.63;5099245;28;20216;-73
2024/01/07 00:55:16;;;;;;;5.95;2.80;;;;;;;0.26;100.00;102679.03;5092999;28;20303;-73
2024/01/07 00:57:42;;;;;;;6.20;3.10;;;;;;;0.71;100.00;102740.69;5098679;28;20568;-73
2024/01/07 01:00:08;;;;;;;5.63;3.20;;;;;;;0.53;100.00;102716.19;5095325;28;20189;-73
2024/01/07 01:02:34;;;;;;;8.50;2.67;;;;;;;0.30;100.00;102728.06;5096410;28;20190;-73
2024/01/07 01:05:01;;;;;;;7.50;3.30;;;;;;;0.51;100.00;102794.63;5101913;28;20456;-73
2024/01/07 01:07:27;;;;;;;6.03;2.70;;;;;;;0.43;100.00;102763.41;5096068;28;20530;-73
2024/01/07 01:09:52;;;;;;;6.00;2.33;;;;;;;0.57;100.00;102804.84;5104678;27;20869;-73
2024/01/07 01:12:18;;;;;;;5.10;2.37;;;;;;;0.00;100.00;102722.69;5101208;27;20181;-72
2024/01/07 01:14:43;;;;;;;5.90;2.53;;;;;;;0.07;100.00;102726.69;5097020;28;20823;-73
2024/01/07 01:17:08;;;;;;;5.33;2.67;;;;;;;-0.09;100.00;102725.81;5097450;28;20241;-73
2024/01/07 01:19:36;;;;;;;5.20;2.77;;;;;;;0.70;100.00;102841.16;5099282;28;20543;-73
2024/01/07 01:22:02;;;;;;;5.80;3.13;;;;;;;-0.37;100.00;102687.75;5098904;28;20217;-73
2024/01/07 01:24:27;;;;;;;6.93;3.03;;;;;;;-0.05;100.00;102736.13;5101902;28;20984;-73
2024/01/07 01:26:52;;;;;;;6.30;2.83;;;;;;;0.26;100.00;102789.88;5102902;28;20263;-73
2024/01/07 01:29:18;;;;;;;4.70;2.20;;;;;;;0.54;100.00;102846.44;5099283;28;20186;-73
2024/01/07 01:31:43;;;;;;;5.40;2.57;;;;;;;0.29;100.00;102789.72;5101408;28;20198;-73
2024/01/07 01:34:09;;;;;;;8.03;2.50;;;;;;;0.08;100.00;102770.59;5098993;28;20239;-73
2024/01/07 01:36:37;;;;;;;4.70;2.00;;;;;;;0.11;100.00;102736.13;5095596;28;20201;-73
2024/01/07 01:39:03;;;;;;;5.20;2.40;;;;;;;0.36;100.00;102838.56;5097895;27;20286;-73
2024/01/07 01:41:28;;;;;;;6.77;2.47;;;;;;;0.21;100.00;102782.19;5102854;28;20479;-73
2024/01/07 01:43:58;;;;;;;5.90;2.70;;;;;;;0.77;100.00;102905.91;5100142;28;20761;-73
2024/01/07 01:46:24;;;;;;;4.90;2.37;;;;;;;0.53;100.00;102890.47;5097747;28;20562;-73
2024/01/07 01:48:49;;;;;;;6.20;2.40;;;;;;;0.07;100.00;102860.41;5104228;28;20526;-73
2024/01/07 01:51:15;;;;;;;4.90;1.80;;;;;;;0.62;100.00;102904.97;5103309;28;20198;-73
2024/01/07 01:53:41;;;;;;;6.37;2.70;;;;;;;0.39;100.00;102920.25;5100486;28;20210;-73
2024/01/07 01:56:07;;;;;;;5.30;2.03;;;;;;;0.50;100.00;102937.31;5096033;28;20799;-73
2024/01/07 01:58:32;;;;;;;5.50;2.00;;;;;;;0.56;100.00;102956.31;5100280;28;20214;-73
2024/01/07 02:00:59;;;;;;;6.40;2.10;;;;;;;0.27;100.00;102902.44;5100554;28;20432;-73
2024/01/07 02:03:25;;;;;;;4.80;2.00;;;;;;;-0.30;100.00;102784.03;5104192;28;20632;-73
2024/01/07 02:05:52;;;;;;;6.87;2.30;;;;;;;0.25;100.00;102901.66;5096860;28;20440;-73
2024/01/07 02:08:19;;;;;;;5.70;2.00;;;;;;;0.43;100.00;102964.06;5104611;28;20797;-73
2024/01/07 02:10:44;;;;;;;5.30;1.70;;;;;;;0.21;100.00;102924.72;5101789;28;20448;-73
2024/01/07 02:13:10;;;;;;;4.80;2.20;;;;;;;-0.11;100.00;102865.72;5100777;28;20424;-73
2024/01/07 02:15:36;;;;;;;5.27;2.03;;;;;;;-0.26;100.00;102819.00;5099196;28;20300;-73
2024/01/07 02:18:02;;;;;;;4.40;1.80;;;;;;;0.03;100.00;102967.91;5096432;28;20502;-73
2024/01/07 02:20:27;;;;;;;4.93;2.13;;;;;;;0.52;100.00;103020.81;5094435;28;20225;-73
2024/01/07 02:22:53;;;;;;;4.80;1.90;;;;;;;0.63;100.00;102991.19;5100064;28;20221;-73
2024/01/07 02:25:19;;;;;;;5.00;1.90;;;;;;;0.24;100.00;102905.22;5101097;27;20214;-73
2024/01/07 02:27:44;;;;;;;5.13;2.17;;;;;;;0.57;100.00;102970.38;5096870;27;20472;-73
2024/01/07 02:30:10;;;;;;;4.27;1.77;;;;;;;0.37;100.00;103016.31;5100410;28;20543;-73
2024/01/07 02:32:37;;;;;;;6.53;2.00;;;;;;;0.77;100.00;103016.88;5108745;28;20185;-73
2024/01/07 02:35:04;;;;;;;6.50;2.10;;;;;;;0.66;100.00;103017.44;5099829;27;21006;-73
2024/01/07 02:37:29;;;;;;;4.27;1.77;;;;;;;0.34;100.00;102961.88;5103290;28;20467;-73
2024/01/07 02:39:55;;;;;;;5.60;1.77;;;;;;;-0.10;100.00;102922.81;5102170;27;20581;-73
2024/01/07 02:42:20;;;;;;;4.30;1.67;;;;;;;-0.31;100.00;102930.03;5097578;28;20193;-73
2024/01/07 02:44:46;;;;;;;3.97;1.50;;;;;;;0.68;100.00;103068.41;5100596;28;20625;-73
2024/01/07 02:47:11;;;;;;;5.50;2.00;;;;;;;0.22;100.00;103018.78;5096274;28;20229;-73
2024/01/07 02:49:37;;;;;;;4.60;1.90;;;;;;;0.68;100.00;103085.09;5101306;28;20190;-73
2024/01/07 02:52:02;;;;;;;4.63;1.60;;;;;;;0.56;100.00;103090.16;5104093;28;20639;-73
2024/01/07 02:54:28;;;;;;;4.40;1.60;;;;;;;0.54;100.00;103108.72;5099675;28;20205;-73
2024/01/07 02:56:53;;;;;;;5.10;2.07;;;;;;;0.09;100.00;103044.13;5098101;28;20610;-73
2024/01/07 02:59:19;;;;;;;4.00;1.50;;;;;;;0.28;100.00;103025.53;5099351;28;20205;-73
2024/01/07 03:01:45;;;;;;;4.43;1.90;;;;;;;0.50;100.00;103064.91;5101806;27;20216;-73
2024/01/07 03:04:12;;;;;;;5.50;1.50;;;;;;;-0.19;100.00;102968.13;5096280;27;20451;-73
2024/01/07 03:06:37;;;;;;;4.70;1.87;;;;;;;-0.02;100.00;102962.84;5102608;28;20190;-73
2024/01/07 03:09:03;;;;;;;5.87;2.10;;;;;;;0.02;100.00;102981.16;5099617;28;20447;-73
2024/01/07 03:11:29;;;;;;;7.43;1.70;;;;;;;-0.10;100.00;102983.47;5100173;28;20186;-73
2024/01/07 03:13:58;;;;;;;5.87;1.90;;;;;;;0.67;100.00;103064.06;5097678;27;20202;-73
2024/01/07 03:16:26;;;;;;;8.50;1.90;;;;;;;0.68;100.00;103094.81;5098737;27;20463;-73
2024/01/07 03:18:52;;;;;;;7.70;1.90;;;;;;;0.79;100.00;103110.13;5099021;28;20549;-73
2024/01/07 03:21:19;;;;;;;4.73;1.90;;;;;;;0.33;100.00;103112.44;5103420;28;20453;-73
2024/01/07 03:23:44;;;;;;;4.95;1.50;;;;;;;0.30;100.00;103038.69;5106164;28;20734;-73
2024/01/07 03:26:13;;;;;;;4.03;1.60;;;;;;;0.05;100.00;103054.88;5099488;28;20440;-73
2024/01/07 03:28:39;;;;;;;4.70;1.60;;;;;;;0.13;100.00;103056.22;5102503;28;20198;-73
2024/01/07 03:31:09;;;;;;;5.70;1.70;;;;;;;0.44;100.00;103128.59;5098118;28;21517;-73
2024/01/07 03:33:34;;;;;;;4.73;1.60;;;;;;;0.14;100.00;103046.50;5097065;28;20193;-73
2024/01/07 03:36:00;;;;;;;5.03;1.60;;;;;;;-0.40;100.00;102977.09;5099686;28;20588;-73
2024/01/07 03:38:25;;;;;;;5.10;1.70;;;;;;;0.07;100.00;103043.31;5097013;28;20282;-73
2024/01/07 03:40:51;;;;;;;4.63;1.57;;;;;;;0.01;100.00;103051.56;5096815;28;20182;-73
2024/01/07 03:43:16;;;;;;;5.73;1.40;;;;;;;0.22;100.00;103100.63;5097208;28;20179;-73
2024/01/07 03:45:43;;;;;;;4.40;1.40;;;;;;;0.50;100.00;103101.03;5102407;28;20215;-73
2024/01/07 03:48:08;;;;;;;5.20;1.80;;;;;;;0.66;100.00;103133.66;5101964;28;20196;-73
2024/01/07 03:50:34;;;;;;;5.20;1.70;;;;;;;-0.14;100.00;103054.94;5095883;28;20435;-73
2024/01/07 03:52:59;;;;;;;4.70;1.70;;;;;;;-0.09;100.00;103052.91;5097674;28;20182;-73
2024/01/07 03:55:25;;;;;;;4.60;1.47;;;;;;;-0.52;100.00;103025.97;5100414;28;20205;-73
2024/01/07 03:57:50;;;;;;;4.07;1.37;;;;;;;0.49;100.00;103123.06;5099480;28;20301;-73
2024/01/07 04:00:16;;;;;;;4.33;1.23;;;;;;;-0.12;100.00;103082.09;5096049;28;20334;-73
2024/01/07 04:02:41;;;;;;;3.53;1.23;;;;;;;0.25;100.00;103123.38;5097078;28;20202;-73
2024/01/07 04:05:09;;;;;;;5.80;1.73;;;;;;;0.04;100.00;103116.50;5099202;28;20213;-73
2024/01/07 04:07:34;;;;;;;3.97;1.40;;;;;;;-0.04;100.00;103057.03;5099807;28;20247;-73
2024/01/07 04:09:59;;;;;;;4.43;1.27;;;;;;;-0.48;100.00;102982.75;5102164;27;20515;-73
2024/01/07 04:12:25;;;;;;;5.37;1.50;;;;;;;-0.50;100.00;102995.97;5099211;28;20189;-73
2024/01/07 04:14:50;;;;;;;3.50;1.37;;;;;;;-0.33;100.00;103034.72;5098573;28;20213;-73
2024/01/07 04:17:16;;;;;;;4.37;1.30;;;;;;;-0.30;100.00;103060.94;5098867;28;20210;-73
2024/01/07 04:19:41;;;;;;;3.80;1.20;;;;;;;0.00;100.00;103126.38;5107912;28;20189;-73
2024/01/07 04:22:09;;;;;;;3.83;1.20;;;;;;;-0.25;100.00;103148.63;5096814;28;20186;-73
2024/01/07 04:24:34;;;;;;;5.50;1.73;;;;;;;-0.01;100.00;103135.19;5104536;27;20214;-73
2024/01/07 04:27:00;;;;;;;5.80;1.50;;;;;;;-0.10;100.00;103143.56;5096648;28;20440;-73
2024/01/07 04:29:25;;;;;;;4.40;1.10;;;;;;;0.30;100.00;103218.19;5101795;27;20186;-73
2024/01/07 04:31:51;;;;;;;4.23;1.30;;;;;;;0.26;100.00;103217.50;5097391;28;20201;-73
2024/01/07 04:34:18;;;;;;;4.07;1.23;;;;;;;-0.09;100.00;103137.34;5098995;28;20281;-73
2024/01/07 04:36:44;;;;;;;3.77;1.40;;;;;;;0.06;100.00;103170.94;5102344;28;20192;-73
2024/01/07 04:39:09;;;;;;;4.33;1.57;;;;;;;0.04;100.00;103171.94;5096286;28;20442;-72
2024/01/07 04:41:35;;;;;;;3.83;1.33;;;;;;;0.16;100.00;103195.09;5102503;28;20186;-73
2024/01/07 04:44:03;;;;;;;3.97;1.43;;;;;;;-0.14;100.00;103142.84;5095924;28;20197;-73
2024/01/07 04:46:28;;;;;;;3.60;1.30;;;;;;;0.39;100.00;103223.03;5094734;28;20182;-73
2024/01/07 04:48:53;;;;;;;4.27;1.10;;;;;;;0.08;100.00;103169.06;5101674;28;20834;-73
2024/01/07 04:51:19;;;;;;;4.37;0.90;;;;;;;0.01;100.00;103203.75;5106045;28;20201;-73
2024/01/07 04:56:08;;;;;;;4.10;1.20;;;;;;;-0.22;100.00;103260.19;5116961;27;20292;-73
2024/01/07 04:58:36;;;;;;;4.10;1.50;;;;;;;-1.57;100.00;103048.28;5115958;27;20265;-73
2024/01/07 05:01:04;;;;;;;4.70;1.17;;;;;;;-1.51;100.00;103008.53;5109407;27;20436;-73
2024/01/07 05:03:29;;;;;;;4.80;1.50;;;;;;;0.49;100.00;103351.03;5114279;27;20494;-73
2024/01/07 05:05:55;;;;;;;4.37;1.10;;;;;;;0.17;100.00;103279.50;5116799;27;20458;-73
2024/01/07 05:08:20;;;;;;;3.50;1.13;;;;;;;0.40;100.00;103314.50;5111512;27;20280;-72
2024/01/07 05:10:46;;;;;;;3.70;1.00;;;;;;;0.31;100.00;103302.59;5115381;27;20544;-73
2024/01/07 05:13:11;;;;;;;4.40;1.30;;;;;;;0.58;100.00;103332.13;5112809;27;20186;-73
2024/01/07 05:15:36;;;;;;;3.87;1.07;;;;;;;0.61;100.00;103378.69;5113032;27;20457;-73
2024/01/07 05:18:02;;;;;;;14.40;1.80;;;;;;;0.24;100.00;103321.44;5114108;27;20201;-73
2024/01/07 05:20:27;;;;;;;4.17;1.10;;;;;;;0.09;100.00;103315.09;5112300;27;20554;-73
2024/01/07 05:22:53;;;;;;;3.63;1.00;;;;;;;-0.03;100.00;103284.78;5113005;27;20182;-73
2024/01/07 05:25:18;;;;;;;3.17;1.17;;;;;;;0.28;100.00;103344.13;5109726;27;20210;-73
2024/01/07 05:27:44;;;;;;;3.40;0.97;;;;;;;0.05;100.00;103309.06;5112829;27;20196;-73
2024/01/07 05:30:09;;;;;;;3.80;1.23;;;;;;;0.67;100.00;103416.22;5101000;27;20193;-73
2024/01/07 05:32:35;;;;;;;5.77;1.30;;;;;;;0.38;100.00;103356.84;5113152;27;20568;-73
2024/01/07 05:35:00;;;;;;;3.97;1.03;;;;;;;0.28;100.00;103337.03;5112797;28;20183;-73
2024/01/07 05:37:26;;;;;;;3.80;0.90;;;;;;;0.08;100.00;103329.19;5116961;28;20451;-73
2024/01/07 05:39:51;;;;;;;5.17;1.30;;;;;;;0.39;100.00;103379.66;5118841;28;20267;-73
2024/01/07 05:42:17;;;;;;;3.40;1.00;;;;;;;0.17;100.00;103363.06;5115744;28;20688;-73
2024/01/07 05:44:42;;;;;;;3.70;1.10;;;;;;;-0.08;100.00;103343.06;5113606;28;20286;-73
2024/01/07 05:47:07;;;;;;;5.40;1.00;;;;;;;0.71;100.00;103485.63;5112466;28;20279;-73
2024/01/07 05:49:33;;;;;;;4.30;1.50;;;;;;;0.67;100.00;103457.63;5112517;28;20178;-73
2024/01/07 05:51:59;;;;;;;4.00;1.27;;;;;;;0.54;100.00;103452.03;5114332;28;20190;-72
2024/01/07 05:54:24;;;;;;;4.90;1.23;;;;;;;-0.07;100.00;103375.59;5109589;28;20663;-72
2024/01/07 05:56:50;;;;;;;4.03;0.90;;;;;;;0.40;100.00;103507.25;5117350;27;20184;-73
2024/01/07 05:59:15;;;;;;;8.17;1.70;;;;;;;0.55;100.00;103490.75;5109057;27;20664;-72
2024/01/07 06:01:41;;;;;;;5.57;1.20;;;;;;;0.84;100.00;103478.88;5113201;27;20690;-73
2024/01/07 06:04:06;;;;;;;5.63;1.40;;;;;;;0.75;100.00;103491.63;5110694;27;20247;-72
2024/01/07 06:06:33;;;;;;;5.83;1.30;;;;;;;0.16;100.00;103419.44;5102943;28;20178;-72
2024/01/07 06:08:59;;;;;;;6.15;0.95;;;;;;;0.63;100.00;103507.09;5098634;28;20510;-73
2024/01/07 06:11:24;;;;;;;5.47;1.23;;;;;;;0.63;100.00;103543.22;5094589;28;20234;-72
2024/01/07 06:13:50;;;;;;;3.70;1.20;;;;;;;0.54;100.00;103502.22;5093352;28;20231;-73
2024/01/07 06:16:15;;;;;;;4.20;1.17;;;;;;;0.61;100.00;103556.50;5095984;28;20186;-73
2024/01/07 06:18:43;;;;;;;5.20;0.90;;;;;;;0.79;100.00;103548.69;5094835;28;20328;-73
2024/01/07 06:21:08;;;;;;;3.90;1.00;;;;;;;0.72;100.00;103571.88;5099438;28;20194;-72
2024/01/07 06:23:34;;;;;;;4.90;1.27;;;;;;;0.80;100.00;103575.03;5095104;28;20438;-73
2024/01/07 06:25:59;;;;;;;7.10;1.00;;;;;;;0.71;100.00;103569.31;5094949;28;20204;-72
2024/01/07 06:28:25;;;;;;;4.37;1.20;;;;;;;0.39;100.00;103521.38;5096554;28;20288;-72
2024/01/07 06:30:50;;;;;;;5.20;1.00;;;;;;;0.52;100.00;103579.78;5097384;28;20264;-73
2024/01/07 06:33:16;;;;;;;5.73;1.73;;;;;;;-0.13;100.00;103476.09;5090718;28;21663;-73
2024/01/07 06:35:41;;;;;;;4.17;1.10;;;;;;;0.16;100.00;103514.47;5095703;28;20699;-73
2024/01/07 06:38:06;;;;;;;4.73;1.40;;;;;;;0.50;100.00;103542.91;5097162;28;20210;-73
2024/01/07 06:40:32;;;;;;;3.40;1.00;;;;;;;0.45;100.00;103531.69;5096343;28;20181;-72
2024/01/07 06:42:57;;;;;;;4.30;1.30;;;;;;;0.39;100.00;103537.22;5095427;28;20191;-72
2024/01/07 06:45:23;;;;;;;4.20;1.20;;;;;;;0.17;100.00;103502.97;5101917;28;20464;-73
2024/01/07 06:47:48;;;;;;;3.20;1.00;;;;;;;0.22;100.00;103488.66;5094640;28;20206;-73
2024/01/07 06:50:14;;;;;;;3.80;1.20;;;;;;;0.26;100.00;103525.47;5095533;28;20553;-73
2024/01/07 06:52:40;;;;;;;3.90;1.00;;;;;;;-0.41;100.00;103463.19;5092577;28;20175;-73
2024/01/07 06:55:06;;;;;;;4.00;1.20;;;;;;;0.12;100.00;103483.84;5096387;28;20229;-73
2024/01/07 06:57:32;;;;;;;4.20;1.13;;;;;;;0.44;100.00;103548.47;5095831;28;20483;-73
2024/01/07 06:59:57;;;;;;;4.13;1.23;;;;;;;0.43;100.00;103562.56;5094636;28;20823;-73
2024/01/07 07:02:22;;;;;;;5.10;1.20;;;;;;;0.19;100.00;103474.72;5092296;28;20248;-73
2024/01/07 07:04:48;;;;;;;4.23;1.20;;;;;;;0.45;100.00;103523.75;5095288;28;20264;-73
2024/01/07 07:07:13;;;;;;;6.43;1.40;;;;;;;0.13;100.00;103504.88;5100444;28;20214;-72
2024/01/07 07:09:39;;;;;;;4.07;1.30;;;;;;;0.44;100.00;103520.25;5102295;28;20266;-73
2024/01/07 07:12:05;;;;;;;5.53;1.27;;;;;;;0.12;100.00;103489.13;5095800;28;20588;-73
2024/01/07 07:14:31;;;;;;;5.18;1.20;;;;;;;0.78;100.00;103568.97;5097572;28;20176;-72
2024/01/07 07:16:56;;;;;;;4.63;1.60;;;;;;;0.59;100.00;103591.84;5093428;28;20604;-73
2024/01/07 07:19:21;;;;;;;3.93;0.97;;;;;;;0.01;100.00;103546.78;5092380;28;20233;-73
2024/01/07 07:21:47;;;;;;;5.00;1.30;;;;;;;0.50;100.00;103569.31;5088232;28;20207;-73
2024/01/07 07:24:12;;;;;;;4.20;1.00;;;;;;;0.06;100.00;103526.31;5092858;28;20252;-73
2024/01/07 07:26:40;;;;;;;3.90;1.27;;;;;;;0.68;100.00;103615.22;5096059;28;20182;-73
2024/01/07 07:29:09;;;;;;;4.85;1.17;;;;;;;0.51;100.00;103580.72;5092841;28;20703;-73
2024/01/07 07:31:34;;;;;;;4.10;1.20;;;;;;;0.29;100.00;103599.25;5098684;28;20188;-73
2024/01/07 07:34:00;;;;;;;5.10;1.43;;;;;;;0.62;100.00;103633.97;5104293;28;20876;-73
2024/01/07 07:36:26;;;;;;;3.60;1.00;;;;;;;0.28;100.00;103563.22;5097486;28;20186;-73
2024/01/07 07:38:51;;;;;;;4.00;1.10;;;;;;;-0.42;100.00;103493.13;5088119;28;21002;-73
2024/01/07 07:41:17;;;;;;;6.30;1.50;;;;;;;0.56;100.00;103650.06;5098505;28;21304;-73
2024/01/07 07:43:42;;;;;;;4.73;1.57;;;;;;;-0.43;100.00;103523.94;5093601;28;20209;-73
2024/01/07 07:46:07;;;;;;;5.40;1.50;;;;;;;0.04;100.00;103558.06;5095871;28;20196;-74
2024/01/07 07:48:33;;;;;;;6.37;1.73;;;;;;;0.03;100.00;103579.22;5095623;28;20313;-73
2024/01/07 07:50:58;;;;;;;5.90;2.30;;;;;;;0.27;100.00;103622.25;5096120;28;20271;-73
2024/01/07 07:53:24;;;;;;;9.13;3.17;;;;;;;-0.04;100.00;103584.75;5092260;28;20179;-73
2024/01/07 08:08:52;;;;;;;12.27;5.70;;;;;;;-0.72;100.00;103473.22;5123887;27;21139;-73
2024/01/07 08:11:18;;;;;;;13.60;5.67;;;;;;;0.13;100.00;103622.81;5103887;28;20448;-73
2024/01/07 08:13:47;;;;;;;14.30;6.20;;;;;;;-1.66;100.00;103314.47;5104219;28;20247;-73
2024/01/07 08:16:19;;;;;;;13.63;6.00;;;;;;;-0.92;100.00;103367.75;5105727;28;20791;-73
2024/01/07 08:18:49;;;;;;;17.30;7.30;;;;;;;-0.99;100.00;103413.69;5105882;28;20545;-73
2024/01/07 08:21:15;;;;;;;12.50;5.77;;;;;;;-1.41;100.00;103367.03;5104033;28;20448;-73
2024/01/07 08:23:43;;;;;;;19.17;7.90;;;;;;;0.09;100.00;103653.75;5106803;28;20440;-73
2024/01/07 08:26:17;;;;;;;16.83;6.53;;;;;;;-0.32;100.00;103542.81;5105449;28;20225;-73
2024/01/07 08:28:45;;;;;;;9.40;4.50;;;;;;;-1.02;100.00;103367.22;5099549;28;20445;-73
2024/01/07 08:31:11;;;;;;;13.00;5.27;;;;;;;0.19;100.00;103607.56;5104289;28;20437;-73
2024/01/07 08:33:36;;;;;;;16.67;7.50;;;;;;;-0.03;100.00;103553.94;5098734;28;20436;-73
2024/01/07 08:36:02;;;;;;;15.87;7.60;;;;;;;0.66;100.00;103680.44;5100401;28;20652;-73
2024/01/07 08:38:28;;;;;;;11.67;4.10;;;;;;;0.06;100.00;103584.38;5113531;28;20189;-74
2024/01/07 08:40:53;;;;;;;9.97;4.93;;;;;;;0.55;100.00;103643.06;5101983;28;20432;-73
2024/01/07 08:43:24;;;;;;;21.77;10.37;;;;;;;-1.35;100.00;103313.28;5092169;23;20310;-79
2024/01/07 08:45:55;;;;;;;15.97;10.50;;;;;;;-2.07;100.00;103264.28;5069253;28;20204;-80
2024/01/07 08:48:25;;;;;;;12.80;7.73;;;;;;;-0.36;100.00;103535.06;5064918;28;20478;-79
2024/01/07 08:50:55;;;;;;;6.00;2.57;;;;;;;-1.64;100.00;103284.53;5068596;28;20506;-82
2024/01/07 08:53:26;;;;;;;6.00;2.47;;;;;;;-2.43;100.00;103179.72;5067585;28;20486;-81
2024/01/07 08:55:56;;;;;;;5.80;2.20;;;;;;;-0.47;100.00;103470.44;5069747;28;20506;-82
2024/01/07 08:58:21;;;;;;;4.60;2.30;;;;;;;-2.59;100.00;103103.25;5068418;28;20480;-80
2024/01/07 09:01:00;;;;;;;4.77;1.67;;;;;;;-2.23;100.00;103213.16;5076168;28;20434;-81
2024/01/07 09:03:30;;;;;;;4.37;1.57;;;;;;;0.60;100.00;103681.56;5076948;28;20211;-80
2024/01/07 09:06:00;;;;;;;4.70;1.60;;;;;;;-2.87;100.00;103101.63;5065203;28;20859;-80
2024/01/07 09:08:26;;;;;;;4.10;1.60;;;;;;;-1.79;100.00;103265.84;5065203;28;20523;-79
2024/01/07 09:10:54;;;;;;;5.97;1.50;;;;;;;-1.14;100.00;103392.28;5056064;28;20449;-81
2024/01/07 09:13:22;;;;;;;5.13;1.40;;;;;;;-0.48;100.00;103497.72;5050113;28;20187;-81
2024/01/07 09:16:00;;;;;;;;;;;;;;;;;;;;;
2024/01/07 09:18:25;;;;;;;3.47;1.17;;;;;;;-1.04;100.00;103415.63;5042978;28;20435;-81
2024/01/07 09:21:03;;;;;;;;;;;;;;;;;;;;;
2024/01/07 09:23:44;;;;;;;4.80;1.57;;;;;;;-2.46;100.00;103243.78;5080564;27;20959;-76
2024/01/07 09:26:13;;;;;;;4.07;1.50;;;;;;;-2.62;100.00;103205.84;5076197;28;20446;-75
2024/01/07 09:28:39;;;;;;;5.67;1.57;;;;;;;-1.26;100.00;103449.84;5076257;28;20452;-75
2024/01/07 09:31:04;;;;;;;6.77;2.10;;;;;;;-2.21;100.00;103303.38;5069524;28;20508;-76
2024/01/07 09:33:33;;;;;;;4.20;1.80;;;;;;;-1.20;100.00;103420.66;5058820;28;20202;-75
2024/01/07 09:35:59;;;;;;;5.50;1.43;;;;;;;-1.60;100.00;103394.03;5069799;28;20686;-77
2024/01/07 09:38:26;;;;;;;6.87;1.70;;;;;;;-1.50;100.00;103425.31;5063645;28;20457;-75
2024/01/07 09:40:55;;;;;;;4.73;1.63;;;;;;;-1.78;100.00;103397.34;5073319;28;20232;-75
2024/01/07 09:43:20;;;;;;;4.50;1.40;;;;;;;-3.53;100.00;103092.59;5069300;28;20422;-75
2024/01/07 09:45:48;;;;;;;5.40;1.30;;;;;;;-1.93;100.00;103366.34;5071519;28;20483;-76
2024/01/07 09:48:14;;;;;;;5.77;1.60;;;;;;;-1.64;100.00;103410.88;5074727;28;20207;-77
2024/01/07 09:50:42;;;;;;;3.87;1.40;;;;;;;-1.12;100.00;103492.34;5071960;28;20527;-76
2024/01/07 09:53:20;;;;;;;4.63;1.57;;;;;;;-1.91;100.00;103336.44;5068788;28;20984;-76
2024/01/07 09:56:01;;;;;;;6.30;2.57;;;;;;;0.18;100.00;103740.47;5076733;28;20444;-75
2024/01/07 09:58:27;;;;;;;12.60;7.50;;;;;;;-1.38;100.00;103449.38;5073871;28;20457;-75
2024/01/07 10:00:54;;;;;;;14.10;7.00;;;;;;;-3.13;100.00;103125.34;5074747;28;20429;-77
2024/01/07 10:03:25;;;;;;;8.00;3.60;;;;;;;-1.66;100.00;103354.78;5072407;28;20968;-74
2024/01/07 10:05:52;;;;;;;4.60;1.80;;;;;;;-1.52;100.00;103409.56;5068845;28;20499;-76
2024/01/07 10:08:19;;;;;;;5.90;2.60;;;;;;;-1.72;100.00;103289.25;5074216;28;20453;-76
2024/01/07 10:10:51;;;;;;;5.40;2.33;;;;;;;-1.16;100.00;103336.19;5075115;28;20426;-74
2024/01/07 10:13:28;;;;;;;6.50;2.40;;;;;;;0.21;100.00;103610.16;5073767;28;20502;-74
2024/01/07 10:15:56;;;;;;;4.77;2.17;;;;;;;-0.20;100.00;103483.44;5062873;28;20533;-74
2024/01/07 10:18:24;;;;;;;4.73;2.23;;;;;;;0.47;100.00;103595.84;5070853;28;20465;-74
2024/01/07 10:20:52;;;;;;;7.37;2.17;;;;;;;-1.92;100.00;103170.78;5084972;27;20491;-74
2024/01/07 10:23:25;;;;;;;7.03;2.20;;;;;;;-0.05;100.00;103456.38;5086712;28;20452;-74
2024/01/07 10:25:55;;;;;;;8.83;3.07;;;;;;;-1.61;100.00;103231.78;5069064;28;20792;-74
2024/01/07 10:28:25;;;;;;;6.00;2.10;;;;;;;-0.91;100.00;103340.47;5083847;28;20540;-74
2024/01/07 10:30:53;;;;;;;6.20;2.37;;;;;;;-0.19;100.00;103460.53;5069082;28;20806;-74
2024/01/07 10:33:22;;;;;;;7.87;2.23;;;;;;;-1.66;100.00;103211.84;5060236;28;20500;-74
2024/01/07 10:36:05;;;;;;;7.63;2.27;;;;;;;0.54;100.00;103577.97;5060165;28;20449;-74
2024/01/07 10:38:35;;;;;;;5.10;2.00;;;;;;;-1.42;100.00;103236.31;5055932;28;20557;-73
2024/01/07 10:41:01;;;;;;;7.20;2.40;;;;;;;1.23;100.00;103631.25;5058782;28;20523;-74
2024/01/07 10:43:33;;;;;;;6.87;3.00;;;;;;;1.31;100.00;103637.06;5055955;28;20441;-74
2024/01/07 10:46:03;;;;;;;6.13;2.27;;;;;;;0.76;100.00;103517.97;5051069;28;20445;-73
2024/01/07 10:48:34;;;;;;;6.47;2.43;;;;;;;1.33;100.00;103645.81;5056635;28;20459;-73
2024/01/07 10:51:00;;;;;;;6.80;2.03;;;;;;;0.98;100.00;103618.28;5058491;28;20447;-72
2024/01/07 10:53:32;;;;;;;9.60;2.63;;;;;;;1.03;100.00;103571.34;5053847;28;20462;-73
2024/01/07 10:56:04;;;;;;;5.20;2.00;;;;;;;1.48;100.00;103662.75;5048328;28;20471;-74
2024/01/07 10:58:35;;;;;;;4.40;1.57;;;;;;;0.83;100.00;103555.53;5052943;28;20612;-72
2024/01/07 11:01:04;;;;;;;5.30;1.50;;;;;;;1.60;100.00;103669.28;5051912;28;20804;-72
2024/01/07 11:03:43;;;;;;;5.27;2.00;;;;;;;1.68;100.00;103706.81;5057202;28;20465;-73
2024/01/07 11:06:25;;;;;;;5.17;2.10;;;;;;;1.38;100.00;103673.81;5058768;28;20410;-73
2024/01/07 11:09:14;;;;;;;4.50;1.83;;;;;;;1.45;100.00;103686.69;5050666;28;20449;-73
2024/01/07 11:11:43;;;;;;;6.60;2.20;;;;;;;1.21;100.00;103662.19;5052908;28;20527;-72
2024/01/07 11:14:33;;;;;;;6.37;2.13;;;;;;;1.67;100.00;103733.34;5053314;28;20457;-73
2024/01/07 11:16:59;;;;;;;7.23;2.50;;;;;;;1.68;100.00;103728.00;5069670;28;20441;-73
2024/01/07 11:19:24;;;;;;;9.70;2.73;;;;;;;1.81;100.00;103718.53;5045927;28;20449;-73
2024/01/07 11:21:50;;;;;;;7.00;2.03;;;;;;;0.80;100.00;103540.69;5052904;28;20188;-75
2024/01/07 11:24:49;;;;;;;4.47;1.77;;;;;;;2.10;100.00;103715.47;5055942;28;20261;-74
2024/01/07 11:27:15;;;;;;;6.83;2.43;;;;;;;1.35;100.00;103629.84;5051551;28;20234;-74
2024/01/07 11:29:41;;;;;;;5.97;2.37;;;;;;;1.47;100.00;103662.81;5048292;28;20449;-74
2024/01/07 11:32:06;;;;;;;6.27;2.30;;;;;;;1.30;100.00;103618.63;5073880;28;20651;-74
2024/01/07 11:34:40;;;;;;;5.53;2.13;;;;;;;1.32;100.00;103644.06;5048164;28;20184;-75
2024/01/07 11:37:09;;;;;;;6.47;2.23;;;;;;;1.93;100.00;103748.88;5057142;28;20195;-74
2024/01/07 11:39:35;;;;;;;5.60;2.50;;;;;;;2.09;100.00;103733.16;5055177;28;20910;-74